Time;durP1;ratioP1;P1;durP2;ratioP2;P2;SDS_P1;SDS_P2;PMS_P1;PMS_P2;Temp;Humidity;BMP_temperature;BMP_pressure;BME280_temperature;BME280_humidity;BME280_pressure;Samples;Min_cycle;Max_cycle;Signal;HPM_P1;HPM_P2
2021/07/29 00:00:12;;;;;;;4.87;4.00;;;16.50;99.90;;;;;;5031600;28;20620;-88
2021/07/29 00:02:39;;;;;;;4.83;4.33;;;16.50;99.90;;;;;;5025925;28;20638;-87
2021/07/29 00:05:07;;;;;;;4.30;4.00;;;16.50;99.90;;;;;;5031871;28;20623;-88
2021/07/29 00:07:34;;;;;;;4.73;4.23;;;16.50;99.90;;;;;;5031165;28;21218;-88
2021/07/29 00:10:01;;;;;;;5.60;4.47;;;16.50;99.90;;;;;;5031715;28;20720;-88
2021/07/29 00:12:28;;;;;;;7.60;5.57;;;16.40;99.90;;;;;;5031456;28;20741;-87
2021/07/29 00:14:55;;;;;;;5.97;5.43;;;16.40;99.90;;;;;;5031309;28;20635;-87
2021/07/29 00:19:01;;;;;;;5.33;4.93;;;16.40;99.90;;;;;;5026860;28;20623;-89
2021/07/29 00:20:18;;;;;;;4.97;4.57;;;16.40;99.90;;;;;;5031243;28;20635;-88
2021/07/29 00:22:48;;;;;;;5.37;4.93;;;16.40;99.90;;;;;;5030929;28;20661;-88
2021/07/29 00:25:16;;;;;;;4.70;4.30;;;16.30;99.90;;;;;;5031755;28;20629;-88
2021/07/29 00:27:44;;;;;;;4.83;4.00;;;16.30;99.90;;;;;;5031484;28;20968;-88
2021/07/29 00:30:13;;;;;;;4.83;4.27;;;16.30;99.90;;;;;;5031443;28;20611;-89
2021/07/29 00:32:42;;;;;;;3.80;3.50;;;16.20;99.90;;;;;;5031510;28;20619;-88
2021/07/29 00:35:14;;;;;;;4.47;4.07;;;16.20;99.90;;;;;;5025804;28;20656;-88
2021/07/29 00:37:41;;;;;;;4.73;4.20;;;16.10;99.90;;;;;;5031541;28;21195;-88
2021/07/29 00:40:10;;;;;;;4.50;4.10;;;16.10;99.90;;;;;;5030898;28;20630;-88
2021/07/29 00:42:38;;;;;;;4.23;3.93;;;16.00;99.90;;;;;;5030134;28;20610;-88
2021/07/29 00:45:06;;;;;;;4.27;3.87;;;15.90;99.90;;;;;;5031960;28;21038;-89
2021/07/29 00:47:34;;;;;;;4.10;3.77;;;15.90;99.90;;;;;;5027472;28;20776;-89
2021/07/29 00:50:03;;;;;;;4.63;4.10;;;15.80;99.90;;;;;;5030473;28;21017;-88
2021/07/29 00:52:30;;;;;;;5.20;4.80;;;15.80;99.90;;;;;;5030247;28;20611;-88
2021/07/29 00:54:57;;;;;;;6.20;4.37;;;15.80;99.90;;;;;;5031092;28;20663;-88
2021/07/29 00:57:24;;;;;;;3.70;3.40;;;15.80;99.90;;;;;;5030944;28;20627;-88
2021/07/29 00:59:51;;;;;;;4.13;3.80;;;15.70;99.90;;;;;;5031081;28;20615;-88
2021/07/29 01:02:18;;;;;;;4.97;4.07;;;15.70;99.90;;;;;;5028755;28;21018;-88
2021/07/29 01:04:46;;;;;;;3.90;3.60;;;15.70;99.90;;;;;;5028032;28;20619;-88
2021/07/29 01:07:15;;;;;;;4.47;4.03;;;15.80;99.90;;;;;;5030820;28;20718;-88
2021/07/29 01:09:44;;;;;;;4.30;3.90;;;15.80;99.90;;;;;;5031272;28;20873;-88
2021/07/29 01:12:14;;;;;;;5.47;3.97;;;15.80;99.90;;;;;;5030282;28;21232;-88
2021/07/29 01:14:46;;;;;;;4.57;4.17;;;15.80;99.90;;;;;;5029165;28;20679;-87
2021/07/29 01:17:15;;;;;;;3.70;3.40;;;15.80;99.90;;;;;;5050464;28;20721;-88
2021/07/29 01:19:43;;;;;;;4.57;4.10;;;15.80;99.90;;;;;;5035693;28;20652;-88
2021/07/29 01:22:14;;;;;;;4.40;4.00;;;15.70;99.90;;;;;;5030458;28;20619;-88
2021/07/29 01:24:42;;;;;;;4.33;3.93;;;15.80;99.90;;;;;;5030310;28;20648;-88
2021/07/29 01:27:10;;;;;;;5.67;3.87;;;15.90;99.90;;;;;;5030206;28;20619;-88
2021/07/29 01:29:39;;;;;;;4.37;3.97;;;15.90;99.90;;;;;;5030832;28;20718;-88
2021/07/29 01:32:07;;;;;;;4.63;4.10;;;15.90;99.90;;;;;;5041719;28;21215;-88
2021/07/29 01:34:35;;;;;;;4.30;3.90;;;15.90;99.90;;;;;;5045588;28;21232;-87
2021/07/29 01:37:04;;;;;;;3.83;3.43;;;15.80;99.90;;;;;;5050703;28;21238;-87
2021/07/29 01:39:33;;;;;;;4.53;4.10;;;15.90;99.90;;;;;;5050307;28;20630;-88
2021/07/29 01:42:01;;;;;;;4.40;3.90;;;15.90;99.90;;;;;;5050126;28;20716;-87
2021/07/29 01:44:34;;;;;;;5.17;4.67;;;15.90;99.90;;;;;;5050624;28;21172;-87
2021/07/29 01:47:02;;;;;;;5.10;4.10;;;15.80;99.90;;;;;;5050549;28;20622;-87
2021/07/29 01:49:34;;;;;;;5.60;4.10;;;15.80;99.90;;;;;;5045150;28;20664;-88
2021/07/29 01:52:03;;;;;;;4.17;3.77;;;15.70;99.90;;;;;;5046762;28;20718;-88
2021/07/29 01:54:33;;;;;;;4.70;4.30;;;15.70;99.90;;;;;;5030175;28;20651;-88
2021/07/29 01:57:03;;;;;;;4.30;3.90;;;15.70;99.90;;;;;;5030765;28;20653;-87
2021/07/29 01:59:34;;;;;;;4.50;4.10;;;15.70;99.90;;;;;;5030378;28;21191;-88
2021/07/29 02:02:03;;;;;;;4.00;3.70;;;15.70;99.90;;;;;;5029979;28;20619;-88
2021/07/29 02:04:31;;;;;;;9.07;4.47;;;15.70;99.90;;;;;;5025430;28;21299;-88
2021/07/29 02:06:58;;;;;;;5.57;5.07;;;15.70;99.90;;;;;;5028442;28;21005;-88
2021/07/29 02:09:33;;;;;;;9.90;3.90;;;15.60;99.90;;;;;;5027603;28;21020;-88
2021/07/29 02:12:03;;;;;;;5.50;4.77;;;15.60;99.90;;;;;;5025843;28;20700;-88
2021/07/29 02:14:31;;;;;;;7.03;4.63;;;15.50;99.90;;;;;;5028129;28;20651;-88
2021/07/29 02:17:01;;;;;;;5.37;4.13;;;15.50;99.90;;;;;;5030241;28;20627;-87
2021/07/29 02:19:32;;;;;;;4.53;4.13;;;15.50;99.90;;;;;;5024964;28;20761;-88
2021/07/29 02:22:00;;;;;;;4.90;4.40;;;15.40;99.90;;;;;;5029838;28;20983;-88
2021/07/29 02:24:31;;;;;;;5.20;4.70;;;15.40;99.90;;;;;;5031728;28;20658;-87
2021/07/29 02:27:00;;;;;;;8.50;4.70;;;15.40;99.90;;;;;;5033897;28;20610;-87
2021/07/29 02:29:28;;;;;;;6.80;5.80;;;15.40;99.90;;;;;;5033466;28;20658;-87
2021/07/29 02:31:58;;;;;;;6.63;6.03;;;15.30;99.90;;;;;;5033835;28;20726;-87
2021/07/29 02:34:26;;;;;;;7.13;6.43;;;15.30;99.90;;;;;;5033540;28;20622;-88
2021/07/29 02:36:56;;;;;;;7.83;7.10;;;15.40;99.90;;;;;;5033741;28;20990;-88
2021/07/29 02:39:24;;;;;;;6.80;6.10;;;15.40;99.90;;;;;;5033318;28;20846;-87
2021/07/29 02:42:06;;;;;;;7.10;6.40;;;15.30;99.90;;;;;;5033714;28;20673;-87
2021/07/29 02:44:40;;;;;;;7.00;6.30;;;15.30;99.90;;;;;;5033318;28;20721;-88
2021/07/29 02:47:09;;;;;;;6.80;6.20;;;15.30;99.90;;;;;;5033333;28;20623;-88
2021/07/29 02:49:37;;;;;;;6.70;6.10;;;15.20;99.90;;;;;;5033252;28;20615;-88
2021/07/29 02:52:05;;;;;;;6.70;6.07;;;15.20;99.90;;;;;;5028390;28;20646;-88
2021/07/29 02:54:31;;;;;;;5.73;5.23;;;15.10;99.90;;;;;;5033117;28;21164;-88
2021/07/29 02:56:58;;;;;;;7.23;6.00;;;15.20;99.90;;;;;;5033410;28;20615;-88
2021/07/29 02:59:27;;;;;;;5.20;4.70;;;15.20;99.90;;;;;;5033114;28;20745;-88
2021/07/29 03:01:54;;;;;;;5.83;5.30;;;15.20;99.90;;;;;;5032726;28;20712;-88
2021/07/29 03:04:21;;;;;;;5.87;5.30;;;15.20;99.90;;;;;;5033372;28;21263;-88
2021/07/29 03:06:48;;;;;;;4.20;3.83;;;15.00;99.90;;;;;;5033174;28;20607;-88
2021/07/29 03:09:15;;;;;;;6.00;5.40;;;14.90;99.90;;;;;;5044802;28;20645;-88
2021/07/29 03:11:42;;;;;;;5.93;5.33;;;14.90;99.90;;;;;;5052629;28;20608;-88
2021/07/29 03:14:09;;;;;;;5.03;4.63;;;14.90;99.90;;;;;;5052393;28;20709;-87
2021/07/29 03:16:37;;;;;;;5.93;5.20;;;14.90;99.90;;;;;;5052645;28;20741;-87
2021/07/29 03:19:04;;;;;;;9.60;5.20;;;15.00;99.90;;;;;;5052820;28;21209;-88
2021/07/29 03:21:31;;;;;;;5.33;4.80;;;14.90;99.90;;;;;;5040906;28;20620;-87
2021/07/29 03:23:58;;;;;;;5.77;5.13;;;15.00;99.90;;;;;;5027417;28;20639;-87
2021/07/29 03:26:25;;;;;;;6.37;5.77;;;15.00;99.90;;;;;;5032473;28;20624;-87
2021/07/29 03:28:53;;;;;;;5.27;4.83;;;15.00;99.90;;;;;;5032270;28;20639;-88
2021/07/29 03:31:20;;;;;;;5.77;5.27;;;14.90;99.90;;;;;;5032478;28;20661;-88
2021/07/29 03:33:49;;;;;;;5.10;4.60;;;14.90;99.90;;;;;;5032558;28;20659;-88
2021/07/29 03:36:16;;;;;;;6.00;5.40;;;14.80;99.90;;;;;;5032768;28;20662;-88
2021/07/29 03:38:43;;;;;;;7.67;5.03;;;14.80;99.90;;;;;;5030335;28;20650;-88
2021/07/29 03:41:11;;;;;;;6.10;5.00;;;14.70;99.90;;;;;;5029807;28;20655;-88
2021/07/29 03:43:38;;;;;;;5.60;5.10;;;14.70;99.90;;;;;;5032806;28;20971;-87
2021/07/29 03:46:05;;;;;;;7.63;6.07;;;14.60;99.90;;;;;;5032722;28;20627;-87
2021/07/29 03:48:32;;;;;;;7.17;5.43;;;14.60;99.90;;;;;;5032386;28;20635;-88
2021/07/29 03:51:00;;;;;;;7.53;6.30;;;14.60;99.90;;;;;;5032330;28;20625;-87
2021/07/29 03:53:27;;;;;;;6.47;5.73;;;14.60;99.90;;;;;;5031991;28;20611;-88
2021/07/29 03:55:54;;;;;;;6.43;5.83;;;14.70;99.90;;;;;;5031690;28;20724;-88
2021/07/29 03:58:21;;;;;;;6.77;6.17;;;14.70;99.90;;;;;;5032388;28;20718;-87
2021/07/29 04:00:48;;;;;;;7.83;6.10;;;14.70;99.90;;;;;;5032405;28;20643;-88
2021/07/29 04:03:15;;;;;;;7.57;5.97;;;14.70;99.90;;;;;;5032124;28;20627;-89
2021/07/29 04:05:42;;;;;;;7.87;7.07;;;14.60;99.90;;;;;;5032616;28;20622;-88
2021/07/29 04:08:11;;;;;;;7.53;6.30;;;14.70;99.90;;;;;;5039799;28;20736;-89
2021/07/29 04:10:38;;;;;;;6.13;5.63;;;14.70;99.90;;;;;;5051998;28;20625;-88
2021/07/29 04:13:05;;;;;;;6.90;6.20;;;14.80;99.90;;;;;;5051728;28;20625;-88
2021/07/29 04:15:32;;;;;;;6.93;6.27;;;14.80;99.90;;;;;;5051763;28;20641;-88
2021/07/29 04:17:59;;;;;;;6.13;5.53;;;14.90;99.90;;;;;;5052128;28;20632;-88
2021/07/29 04:20:26;;;;;;;5.63;4.67;;;14.90;99.90;;;;;;5048771;28;20630;-88
2021/07/29 04:23:04;;;;;;;7.60;5.10;;;14.90;99.90;;;;;;5031404;28;20661;-89
2021/07/29 04:25:33;;;;;;;7.53;5.37;;;15.00;99.90;;;;;;5031713;28;21184;-89
2021/07/29 04:28:00;;;;;;;5.60;5.10;;;15.10;99.90;;;;;;5031858;28;20633;-88
2021/07/29 04:30:27;;;;;;;5.30;4.80;;;15.10;99.90;;;;;;5031718;28;21035;-88
2021/07/29 04:32:55;;;;;;;10.40;5.40;;;15.20;99.90;;;;;;5031223;28;20626;-88
2021/07/29 04:35:22;;;;;;;5.17;4.60;;;15.20;99.90;;;;;;5031475;28;21044;-88
2021/07/29 04:37:49;;;;;;;6.63;5.47;;;15.10;99.90;;;;;;5031547;28;21405;-88
2021/07/29 04:40:18;;;;;;;5.93;5.27;;;15.20;99.90;;;;;;5031614;28;20634;-88
2021/07/29 04:42:47;;;;;;;6.97;5.70;;;15.20;99.90;;;;;;5031238;28;20624;-88
2021/07/29 04:45:14;;;;;;;5.57;4.40;;;15.20;99.90;;;;;;5031265;28;21030;-89
2021/07/29 04:47:41;;;;;;;5.17;4.67;;;15.30;99.90;;;;;;5031002;28;20629;-89
2021/07/29 04:50:09;;;;;;;6.10;5.27;;;15.20;99.90;;;;;;5031215;28;20611;-89
2021/07/29 04:52:36;;;;;;;5.70;4.93;;;15.30;99.90;;;;;;5031205;28;20720;-88
2021/07/29 04:55:04;;;;;;;7.10;4.60;;;15.30;99.90;;;;;;5031801;28;20619;-88
2021/07/29 04:57:34;;;;;;;8.20;4.57;;;15.40;99.90;;;;;;5031419;28;20638;-88
2021/07/29 05:00:04;;;;;;;5.07;4.50;;;15.40;99.90;;;;;;5031601;28;20626;-89
2021/07/29 05:02:31;;;;;;;7.17;4.57;;;15.40;99.90;;;;;;5030585;28;20740;-89
2021/07/29 05:04:58;;;;;;;5.70;5.20;;;15.30;99.90;;;;;;5031274;28;20719;-88
2021/07/29 05:07:25;;;;;;;5.10;4.70;;;15.30;99.90;;;;;;5032578;28;21167;-88
2021/07/29 05:09:54;;;;;;;5.30;4.80;;;15.30;99.90;;;;;;5051251;28;20740;-89
2021/07/29 05:12:21;;;;;;;6.83;5.13;;;15.30;99.90;;;;;;5050469;28;20610;-88
2021/07/29 05:14:48;;;;;;;8.33;4.67;;;15.30;99.90;;;;;;5050821;28;21256;-88
2021/07/29 05:17:17;;;;;;;5.40;4.90;;;15.40;99.90;;;;;;5042343;28;20722;-88
2021/07/29 05:19:44;;;;;;;6.10;4.80;;;15.50;99.90;;;;;;5030762;28;20627;-87
2021/07/29 05:22:11;;;;;;;5.07;4.67;;;15.60;99.90;;;;;;5030990;28;20607;-88
2021/07/29 05:24:38;;;;;;;8.60;4.47;;;15.70;99.90;;;;;;5031090;28;20615;-88
2021/07/29 05:27:05;;;;;;;4.77;4.33;;;15.80;99.90;;;;;;5031623;28;20705;-89
2021/07/29 05:29:33;;;;;;;3.90;3.60;;;15.90;99.90;;;;;;5030658;28;20627;-88
2021/07/29 05:32:00;;;;;;;3.97;3.67;;;16.00;99.90;;;;;;5030634;28;20607;-88
2021/07/29 05:34:28;;;;;;;5.67;4.20;;;16.10;99.90;;;;;;5031381;28;20623;-88
2021/07/29 05:36:55;;;;;;;4.87;3.60;;;16.20;99.90;;;;;;5030886;28;20673;-88
2021/07/29 05:39:22;;;;;;;5.50;4.07;;;16.30;99.90;;;;;;5031046;28;20619;-89
2021/07/29 05:41:49;;;;;;;4.57;4.17;;;16.40;99.90;;;;;;5030894;28;20637;-89
2021/07/29 05:44:17;;;;;;;4.13;3.73;;;16.50;99.90;;;;;;5030447;28;20619;-90
2021/07/29 05:46:44;;;;;;;6.60;3.97;;;16.60;99.90;;;;;;5030929;28;20619;-88
2021/07/29 05:49:11;;;;;;;4.30;3.90;;;16.80;99.90;;;;;;5030970;28;20611;-88
2021/07/29 05:51:39;;;;;;;4.13;3.70;;;16.90;99.90;;;;;;5030279;28;20634;-89
2021/07/29 05:54:06;;;;;;;4.80;4.13;;;17.00;99.90;;;;;;5030970;28;20612;-88
2021/07/29 05:56:33;;;;;;;7.60;4.30;;;17.20;99.90;;;;;;5030490;28;21025;-89
2021/07/29 05:59:00;;;;;;;3.87;3.40;;;17.20;99.90;;;;;;5031807;28;20623;-88
2021/07/29 06:01:27;;;;;;;5.50;3.40;;;17.30;99.90;;;;;;5034254;28;20631;-89
2021/07/29 06:03:55;;;;;;;4.20;3.70;;;17.50;99.90;;;;;;5034686;28;20620;-88
2021/07/29 06:06:22;;;;;;;3.50;3.20;;;17.60;99.90;;;;;;5028830;28;21189;-89
2021/07/29 06:08:53;;;;;;;6.63;4.00;;;17.80;99.90;;;;;;5044043;28;20628;-88
2021/07/29 06:11:20;;;;;;;5.67;3.87;;;18.00;99.90;;;;;;5034686;28;20628;-88
2021/07/29 06:13:47;;;;;;;4.57;4.17;;;17.90;99.90;;;;;;5054107;28;20615;-86
2021/07/29 06:16:14;;;;;;;4.13;3.73;;;18.00;99.90;;;;;;5054431;28;20636;-88
2021/07/29 06:18:52;;;;;;;4.33;4.03;;;18.00;99.90;;;;;;5053755;28;20628;-89
2021/07/29 06:21:19;;;;;;;3.73;3.27;;;18.10;99.90;;;;;;5032398;28;20972;-86
2021/07/29 06:23:46;;;;;;;5.40;3.33;;;18.30;99.90;;;;;;5033178;28;21193;-89
2021/07/29 06:26:14;;;;;;;3.43;3.13;;;18.40;99.90;;;;;;5033768;28;20618;-88
2021/07/29 06:28:41;;;;;;;3.50;3.20;;;18.50;99.90;;;;;;5033831;28;20614;-91
2021/07/29 06:31:09;;;;;;;4.80;3.47;;;18.60;99.90;;;;;;5033396;28;20629;-89
2021/07/29 06:33:36;;;;;;;4.40;4.00;;;18.70;99.90;;;;;;5033392;28;20628;-88
2021/07/29 06:36:03;;;;;;;5.70;3.50;;;18.80;99.90;;;;;;5033781;28;20709;-88
2021/07/29 06:38:30;;;;;;;3.80;3.50;;;19.00;99.90;;;;;;5033048;28;21251;-87
2021/07/29 06:40:57;;;;;;;3.73;3.43;;;18.90;99.90;;;;;;5033177;28;20635;-87
2021/07/29 06:43:26;;;;;;;3.47;3.17;;;19.00;99.90;;;;;;5032876;28;20598;-88
2021/07/29 06:45:53;;;;;;;4.00;3.70;;;19.00;99.90;;;;;;5049169;28;20626;-87
2021/07/29 06:48:20;;;;;;;4.00;3.70;;;19.20;99.90;;;;;;5052970;28;20598;-88
2021/07/29 06:50:47;;;;;;;2.93;2.70;;;19.20;99.90;;;;;;5052641;28;20705;-87
2021/07/29 06:53:14;;;;;;;3.50;3.20;;;19.20;99.90;;;;;;5053072;28;21553;-87
2021/07/29 06:55:42;;;;;;;4.20;3.77;;;19.20;99.90;;;;;;5052756;28;21002;-87
2021/07/29 06:58:09;;;;;;;5.33;3.80;;;19.30;99.90;;;;;;5052743;28;20697;-85
2021/07/29 07:00:38;;;;;;;7.50;3.40;;;19.20;99.90;;;;;;5052693;28;21171;-88
2021/07/29 07:03:05;;;;;;;4.73;3.30;;;19.30;98.80;;;;;;5052769;28;20621;-86
2021/07/29 07:05:34;;;;;;;3.00;2.80;;;19.50;99.10;;;;;;5052331;28;20630;-88
2021/07/29 07:08:01;;;;;;;3.67;3.30;;;19.70;98.90;;;;;;5053053;28;20660;-88
2021/07/29 07:10:28;;;;;;;3.50;3.20;;;19.70;98.60;;;;;;5040613;28;20627;-87
2021/07/29 07:12:55;;;;;;;4.47;3.57;;;19.70;98.50;;;;;;5032394;28;20676;-88
2021/07/29 07:15:22;;;;;;;3.97;3.00;;;19.80;98.00;;;;;;5032682;28;21063;-88
2021/07/29 07:17:51;;;;;;;4.30;3.33;;;19.90;98.10;;;;;;5032439;28;21017;-89
2021/07/29 07:20:21;;;;;;;3.97;3.67;;;19.90;96.90;;;;;;5033066;28;20602;-88
2021/07/29 07:22:48;;;;;;;3.33;3.03;;;19.90;97.80;;;;;;5032491;28;21016;-87
2021/07/29 07:25:15;;;;;;;3.77;3.23;;;19.90;97.20;;;;;;5032701;28;20615;-89
2021/07/29 07:27:45;;;;;;;4.50;3.23;;;20.00;97.00;;;;;;5030024;28;20699;-88
2021/07/29 07:30:13;;;;;;;4.00;3.57;;;19.90;97.20;;;;;;5038007;28;21257;-88
2021/07/29 07:32:40;;;;;;;4.00;3.43;;;20.10;97.10;;;;;;5052006;28;20653;-90
2021/07/29 07:35:13;;;;;;;4.63;2.90;;;20.30;96.50;;;;;;5037992;28;20623;-89
2021/07/29 07:37:42;;;;;;;5.60;3.40;;;20.40;96.10;;;;;;5032494;28;21019;-87
2021/07/29 07:40:10;;;;;;;3.53;3.23;;;20.60;95.70;;;;;;5027136;28;20670;-89
2021/07/29 07:42:40;;;;;;;4.73;3.30;;;20.50;95.70;;;;;;5038689;28;20630;-91
2021/07/29 07:45:08;;;;;;;5.53;3.17;;;20.70;94.90;;;;;;5051948;28;20636;-89
2021/07/29 07:47:35;;;;;;;5.00;3.70;;;20.90;93.80;;;;;;5043199;28;20620;-87
2021/07/29 07:50:02;;;;;;;3.30;3.00;;;20.90;93.50;;;;;;5032359;28;20719;-88
2021/07/29 07:52:42;;;;;;;4.40;4.00;;;21.00;92.30;;;;;;5032232;28;20627;-91
2021/07/29 07:55:11;;;;;;;3.60;3.30;;;20.90;92.20;;;;;;5032110;28;20643;-88
2021/07/29 07:57:39;;;;;;;3.70;3.40;;;21.10;91.90;;;;;;5031977;28;20650;-89
2021/07/29 08:00:12;;;;;;;4.60;3.90;;;20.90;92.10;;;;;;5019815;28;21060;-90
2021/07/29 08:02:41;;;;;;;6.13;4.00;;;20.70;92.30;;;;;;5031973;28;20770;-90
2021/07/29 08:05:27;;;;;;;3.40;3.10;;;20.70;93.10;;;;;;5016286;28;20617;-90
2021/07/29 08:08:00;;;;;;;3.40;3.00;;;20.70;93.00;;;;;;5011427;28;20633;-90
2021/07/29 08:10:29;;;;;;;3.87;3.57;;;20.70;92.80;;;;;;5012956;28;20674;-89
2021/07/29 08:13:10;;;;;;;5.03;4.00;;;20.60;93.70;;;;;;5020251;28;20615;-89
2021/07/29 08:16:01;;;;;;;3.50;3.20;;;20.70;92.90;;;;;;5012074;28;20617;-91
2021/07/29 08:18:31;;;;;;;7.43;3.73;;;20.70;92.40;;;;;;5019667;28;20627;-90
2021/07/29 08:20:59;;;;;;;6.73;3.27;;;20.80;92.70;;;;;;5031658;28;20638;-88
2021/07/29 08:23:29;;;;;;;3.20;3.00;;;20.90;92.90;;;;;;5037806;28;20617;-88
2021/07/29 08:26:11;;;;;;;5.17;3.83;;;20.90;91.50;;;;;;5028676;28;20695;-90
2021/07/29 08:28:52;;;;;;;4.10;3.80;;;20.90;92.70;;;;;;5031964;28;20633;-89
2021/07/29 08:31:24;;;;;;;4.00;3.60;;;20.90;91.00;;;;;;5031284;28;20646;-89
2021/07/29 08:33:55;;;;;;;5.33;3.20;;;20.80;91.90;;;;;;5030340;28;20617;-87
2021/07/29 08:36:22;;;;;;;3.77;3.30;;;20.80;90.80;;;;;;5032065;28;20639;-89
2021/07/29 08:38:51;;;;;;;5.00;4.20;;;20.80;91.00;;;;;;5021886;28;20710;-90
2021/07/29 08:41:24;;;;;;;4.23;3.73;;;20.90;92.10;;;;;;5011062;28;20699;-92
2021/07/29 08:43:51;;;;;;;4.00;3.60;;;21.00;91.40;;;;;;5011662;28;20638;-88
2021/07/29 08:46:22;;;;;;;3.90;3.60;;;21.10;90.70;;;;;;5023022;28;20623;-88
2021/07/29 08:48:51;;;;;;;3.87;3.50;;;21.20;90.70;;;;;;5012345;28;20632;-88
2021/07/29 08:51:20;;;;;;;4.23;3.87;;;21.40;90.40;;;;;;5045235;28;20624;-89
2021/07/29 08:53:49;;;;;;;4.90;4.20;;;21.60;90.20;;;;;;5050440;28;20623;-87
2021/07/29 08:56:28;;;;;;;4.47;3.43;;;21.70;88.80;;;;;;5050607;28;20682;-90
2021/07/29 08:58:56;;;;;;;4.23;3.93;;;21.50;87.30;;;;;;5051315;28;20747;-90
2021/07/29 09:01:46;;;;;;;5.70;3.90;;;21.70;88.10;;;;;;5051021;28;20612;-88
2021/07/29 09:04:18;;;;;;;4.33;4.00;;;21.80;87.60;;;;;;5029327;28;20622;-90
2021/07/29 09:06:57;;;;;;;4.03;3.63;;;21.60;85.80;;;;;;5011195;28;21174;-89
2021/07/29 09:09:42;;;;;;;5.40;3.67;;;21.50;82.70;;;;;;5015000;28;20734;-88
2021/07/29 09:12:17;;;;;;;4.40;3.80;;;21.70;85.40;;;;;;5030647;28;20651;-89
2021/07/29 09:14:44;;;;;;;4.70;4.30;;;21.90;88.40;;;;;;5030257;28;21249;-88
2021/07/29 09:17:11;;;;;;;3.97;3.67;;;22.10;85.20;;;;;;5030862;28;20660;-88
2021/07/29 09:19:40;;;;;;;4.50;3.87;;;22.30;84.40;;;;;;5031445;28;20619;-88
2021/07/29 09:22:13;;;;;;;3.63;3.33;;;22.30;82.20;;;;;;5020520;28;20631;-88
2021/07/29 09:25:06;;;;;;;4.43;4.10;;;22.10;79.70;;;;;;5050701;28;20614;-89
2021/07/29 09:27:48;;;;;;;4.63;4.07;;;22.20;81.30;;;;;;5050319;28;20676;-87
2021/07/29 09:30:22;;;;;;;4.10;3.20;;;22.40;82.20;;;;;;5050887;28;20701;-87
2021/07/29 09:33:05;;;;;;;5.10;4.60;;;22.50;79.20;;;;;;5050444;28;21211;-88
2021/07/29 09:35:42;;;;;;;4.67;3.60;;;22.70;80.60;;;;;;5054819;28;20625;-90
2021/07/29 09:38:21;;;;;;;4.43;3.30;;;22.90;79.20;;;;;;5055091;28;20647;-87
2021/07/29 09:40:52;;;;;;;4.53;3.83;;;23.10;79.00;;;;;;5034305;28;20991;-87
2021/07/29 09:43:20;;;;;;;3.93;3.50;;;23.00;75.80;;;;;;5034307;28;20686;-89
2021/07/29 09:45:50;;;;;;;6.40;4.47;;;22.90;77.30;;;;;;5033981;28;20617;-87
2021/07/29 09:48:18;;;;;;;4.40;4.00;;;22.70;76.40;;;;;;5034158;28;20621;-89
2021/07/29 09:50:49;;;;;;;4.00;3.43;;;23.00;76.00;;;;;;5034072;28;20624;-90
2021/07/29 09:53:16;;;;;;;4.73;4.20;;;22.90;77.30;;;;;;5045700;28;20634;-90
2021/07/29 09:55:43;;;;;;;3.90;3.53;;;23.10;75.40;;;;;;5054497;28;20639;-88
2021/07/29 09:58:11;;;;;;;4.53;4.10;;;23.20;78.30;;;;;;5032980;28;21009;-91
2021/07/29 10:00:39;;;;;;;4.53;4.10;;;23.40;78.40;;;;;;5034058;28;20695;-89
2021/07/29 10:03:08;;;;;;;5.93;4.37;;;23.50;79.10;;;;;;5033834;28;21018;-89
2021/07/29 10:05:47;;;;;;;4.47;4.07;;;23.70;79.80;;;;;;5034012;28;20620;-90
2021/07/29 10:08:22;;;;;;;4.67;4.27;;;23.90;79.20;;;;;;5034078;28;20614;-90
2021/07/29 10:10:51;;;;;;;4.03;3.63;;;23.60;77.80;;;;;;5033587;28;20618;-89
2021/07/29 10:13:20;;;;;;;5.20;4.20;;;23.40;77.50;;;;;;5033027;28;20626;-89
2021/07/29 10:15:47;;;;;;;3.73;3.43;;;23.10;78.40;;;;;;5014146;28;20983;-89
2021/07/29 10:18:15;;;;;;;4.90;4.40;;;22.90;75.60;;;;;;5023811;28;20655;-88
2021/07/29 10:20:43;;;;;;;4.13;3.73;;;22.80;78.00;;;;;;5033422;28;20641;-89
2021/07/29 10:23:37;;;;;;;3.80;3.40;;;22.90;76.00;;;;;;5042495;28;20632;-88
2021/07/29 10:26:06;;;;;;;4.60;4.20;;;23.00;76.60;;;;;;5053883;28;21023;-88
2021/07/29 10:28:39;;;;;;;3.97;3.60;;;22.80;75.20;;;;;;5053880;28;20664;-91
2021/07/29 10:31:13;;;;;;;4.60;4.20;;;23.00;76.50;;;;;;5051946;28;20633;-88
2021/07/29 10:33:44;;;;;;;6.70;4.20;;;23.00;74.70;;;;;;5032018;28;20734;-90
2021/07/29 10:36:43;;;;;;;4.93;4.53;;;22.90;76.90;;;;;;5032434;28;21280;-88
2021/07/29 10:39:11;;;;;;;4.67;4.00;;;23.10;75.50;;;;;;5026511;28;20749;-90
2021/07/29 10:41:59;;;;;;;4.17;3.87;;;23.50;75.80;;;;;;5032580;28;20684;-90
2021/07/29 10:45:00;;;;;;;4.80;4.40;;;23.60;73.80;;;;;;5028166;28;21211;-90
2021/07/29 10:47:45;;;;;;;4.30;3.90;;;23.40;73.50;;;;;;5032708;28;20637;-92
2021/07/29 10:50:16;;;;;;;4.93;3.63;;;23.40;75.30;;;;;;5032068;28;20635;-90
2021/07/29 10:52:51;;;;;;;4.10;3.80;;;23.50;76.20;;;;;;5023978;28;20669;-90
2021/07/29 10:55:21;;;;;;;5.47;4.17;;;24.00;76.70;;;;;;5029580;28;21060;-87
2021/07/29 10:58:02;;;;;;;4.03;3.40;;;24.40;77.10;;;;;;5033344;28;20647;-88
2021/07/29 11:00:30;;;;;;;6.77;4.30;;;24.60;72.00;;;;;;5032826;28;21147;-89
2021/07/29 11:03:03;;;;;;;4.87;4.37;;;24.80;75.00;;;;;;5032467;28;20605;-88
2021/07/29 11:05:44;;;;;;;3.87;3.57;;;25.00;71.60;;;;;;5032965;28;20975;-87
2021/07/29 11:08:13;;;;;;;4.57;4.17;;;24.70;70.10;;;;;;5029859;28;20665;-88
2021/07/29 11:10:40;;;;;;;4.40;4.10;;;24.30;67.90;;;;;;5049488;28;20614;-89
2021/07/29 11:13:08;;;;;;;4.63;4.23;;;23.90;68.00;;;;;;5050109;28;20626;-89
2021/07/29 11:15:40;;;;;;;8.00;5.40;;;23.60;72.40;;;;;;5020240;28;20700;-89
2021/07/29 11:18:17;;;;;;;4.63;4.23;;;23.70;71.60;;;;;;5032498;28;20654;-87
2021/07/29 11:20:44;;;;;;;5.20;4.70;;;24.20;69.50;;;;;;5033053;28;21198;-89
2021/07/29 11:23:33;;;;;;;6.47;4.47;;;24.50;72.30;;;;;;5029763;28;20653;-91
2021/07/29 11:26:02;;;;;;;4.03;3.73;;;24.60;71.60;;;;;;5039179;28;20626;-88
2021/07/29 11:28:32;;;;;;;4.70;4.30;;;25.20;70.10;;;;;;5051036;28;20720;-88
2021/07/29 11:31:01;;;;;;;4.60;3.47;;;25.30;70.90;;;;;;5033454;28;20663;-90
2021/07/29 11:33:36;;;;;;;4.10;3.80;;;25.60;69.60;;;;;;5031976;28;20619;-92
2021/07/29 11:36:11;;;;;;;4.93;4.20;;;26.10;68.70;;;;;;5032219;28;20627;-88
2021/07/29 11:38:44;;;;;;;4.57;4.13;;;26.20;66.80;;;;;;5031950;28;20662;-90
2021/07/29 11:41:11;;;;;;;4.73;4.33;;;26.00;64.50;;;;;;5040425;28;20654;-87
2021/07/29 11:43:39;;;;;;;4.47;4.07;;;26.00;65.30;;;;;;5032325;28;20689;-89
2021/07/29 11:49:09;;;;;;;4.90;4.50;;;26.80;64.80;;;;;;5048669;28;20737;-89
2021/07/29 11:51:41;;;;;;;5.23;4.30;;;27.70;65.00;;;;;;5046791;28;21538;-90
2021/07/29 11:57:32;;;;;;;3.50;3.30;;;28.30;62.20;;;;;;5050041;28;20628;-91
2021/07/29 12:00:06;;;;;;;4.40;4.00;;;28.80;61.60;;;;;;5033817;28;20634;-92
2021/07/29 12:02:38;;;;;;;4.43;4.03;;;29.10;58.70;;;;;;5027922;28;20654;-90
2021/07/29 12:05:20;;;;;;;4.03;3.73;;;29.80;57.60;;;;;;5032811;28;20665;-95
2021/07/29 12:07:52;;;;;;;3.87;3.53;;;29.50;55.60;;;;;;5028500;28;20655;-92
2021/07/29 12:10:39;;;;;;;4.33;4.03;;;30.40;58.10;;;;;;5031900;28;20619;-93
2021/07/29 12:13:20;;;;;;;4.90;4.10;;;30.30;54.40;;;;;;5024704;28;20635;-94
2021/07/29 12:15:52;;;;;;;4.50;4.10;;;29.00;56.40;;;;;;4994088;28;20636;-93
2021/07/29 12:18:23;;;;;;;4.20;3.73;;;28.40;54.90;;;;;;5012583;28;20687;-92
2021/07/29 12:21:13;;;;;;;4.53;4.13;;;27.90;55.90;;;;;;5018032;28;20631;-94
2021/07/29 12:23:58;;;;;;;4.70;4.30;;;27.00;58.50;;;;;;5026697;28;21216;-93
2021/07/29 12:26:48;;;;;;;5.57;5.13;;;26.60;58.90;;;;;;5031424;28;20638;-93
2021/07/29 12:29:55;;;;;;;3.77;3.47;;;26.80;59.80;;;;;;5032373;28;20611;-93
2021/07/29 12:32:37;;;;;;;5.10;4.70;;;26.60;59.60;;;;;;5031906;28;20669;-93
2021/07/29 12:35:27;;;;;;;4.80;4.40;;;26.10;58.30;;;;;;5031659;28;20619;-93
2021/07/29 12:38:02;;;;;;;4.80;4.40;;;25.80;60.60;;;;;;5007323;28;20663;-92
2021/07/29 12:40:31;;;;;;;5.03;4.57;;;25.20;58.30;;;;;;5011509;28;20733;-92
2021/07/29 12:43:20;;;;;;;4.67;4.27;;;25.00;59.90;;;;;;5011435;28;20632;-90
2021/07/29 12:45:51;;;;;;;4.40;3.87;;;25.70;63.90;;;;;;5011579;28;20628;-93
2021/07/29 12:48:18;;;;;;;4.57;4.17;;;27.50;57.70;;;;;;5023894;28;20657;-91
2021/07/29 12:50:51;;;;;;;4.90;4.20;;;28.70;57.90;;;;;;5030857;28;20622;-93
2021/07/29 12:53:25;;;;;;;4.60;4.20;;;29.10;57.20;;;;;;5030362;28;20699;-93
2021/07/29 12:55:53;;;;;;;3.97;3.67;;;28.30;55.70;;;;;;5030876;28;20618;-92
2021/07/29 12:58:37;;;;;;;6.97;4.10;;;27.40;56.80;;;;;;5030839;28;20649;-93
2021/07/29 13:01:26;;;;;;;4.10;3.80;;;28.60;57.60;;;;;;5030765;28;20611;-90
2021/07/29 13:03:53;;;;;;;4.30;4.00;;;30.40;54.40;;;;;;5031633;28;20627;-93
2021/07/29 13:06:23;;;;;;;4.13;3.83;;;31.00;52.90;;;;;;5031188;28;20662;-90
2021/07/29 13:08:53;;;;;;;4.23;3.93;;;31.40;52.80;;;;;;5023300;28;20639;-92
2021/07/29 13:11:20;;;;;;;4.50;4.10;;;32.00;51.10;;;;;;5033250;28;20619;-92